createdAt,value
2022-10-14T00:00:06.410Z,166.10
2022-10-14T00:01:06.388Z,197.40
2022-10-14T00:02:06.425Z,161.20
2022-10-14T00:03:06.352Z,157.20
2022-10-14T00:04:06.345Z,153.30
2022-10-14T00:05:06.331Z,149.00
2022-10-14T00:06:06.329Z,143.40
2022-10-14T00:07:06.309Z,151.10
2022-10-14T00:08:06.303Z,144.90
2022-10-14T00:09:06.286Z,184.90
2022-10-14T00:10:06.276Z,155.80
2022-10-14T00:11:06.266Z,153.40
2022-10-14T00:12:06.259Z,159.10
2022-10-14T00:13:06.247Z,213.50
2022-10-14T00:14:06.234Z,166.20
2022-10-14T00:15:06.220Z,180.10
2022-10-14T00:16:06.236Z,191.30
2022-10-14T00:17:06.199Z,167.30
2022-10-14T00:18:06.190Z,147.20
2022-10-14T00:19:06.174Z,203.30
2022-10-14T00:20:06.239Z,153.50
2022-10-14T00:21:06.157Z,151.00
2022-10-14T00:22:06.144Z,192.10
2022-10-14T00:23:06.131Z,163.60
2022-10-14T00:24:06.122Z,187.60
2022-10-14T00:25:06.111Z,181.70
2022-10-14T00:26:06.098Z,140.60
2022-10-14T00:27:06.089Z,162.90
2022-10-14T00:28:06.077Z,134.00
2022-10-14T00:29:06.066Z,151.10
2022-10-14T00:30:06.057Z,144.20
2022-10-14T00:31:06.041Z,142.80
2022-10-14T00:32:06.057Z,176.50
2022-10-14T00:33:06.020Z,156.80
2022-10-14T00:34:06.013Z,136.00
2022-10-14T00:35:05.999Z,154.90
2022-10-14T00:36:05.989Z,161.70
2022-10-14T00:37:05.979Z,166.90
2022-10-14T00:38:05.968Z,171.10
2022-10-14T00:39:05.955Z,157.60
2022-10-14T00:40:05.943Z,155.50
2022-10-14T00:41:05.933Z,155.30
2022-10-14T00:42:05.929Z,152.50
2022-10-14T00:43:05.910Z,155.10
2022-10-14T00:44:05.900Z,176.50
2022-10-14T00:45:05.888Z,181.20
2022-10-14T00:46:05.880Z,218.00
2022-10-14T00:47:05.868Z,168.40
2022-10-14T00:48:05.883Z,146.90
2022-10-14T00:49:05.844Z,160.70
2022-10-14T00:50:05.834Z,190.50
2022-10-14T00:51:05.828Z,200.80
2022-10-14T00:52:05.816Z,191.40
2022-10-14T00:53:05.804Z,144.10
2022-10-14T00:54:05.822Z,157.50
2022-10-14T00:55:05.866Z,152.00
2022-10-14T00:56:05.878Z,223.30
2022-10-14T00:57:05.904Z,184.20
2022-10-14T00:58:05.889Z,207.30
2022-10-14T00:59:05.751Z,179.00
2022-10-14T01:00:05.748Z,200.40
2022-10-14T01:01:05.803Z,176.00
2022-10-14T01:02:05.702Z,160.90
2022-10-14T01:03:05.688Z,148.60
2022-10-14T01:04:05.704Z,158.00
2022-10-14T01:05:05.673Z,173.70
2022-10-14T01:06:05.657Z,188.80
2022-10-14T01:07:05.645Z,157.80
2022-10-14T01:08:05.637Z,171.30
2022-10-14T01:09:05.626Z,195.30
2022-10-14T01:10:05.619Z,145.30
2022-10-14T01:11:05.601Z,185.70
2022-10-14T01:12:27.585Z,174.60
2022-10-14T01:13:05.585Z,161.40
2022-10-14T01:14:05.571Z,155.20
2022-10-14T01:15:05.561Z,167.30
2022-10-14T01:16:05.546Z,171.30
2022-10-14T01:17:05.538Z,154.10
2022-10-14T01:18:05.526Z,186.00
2022-10-14T01:19:05.513Z,178.60
2022-10-14T01:20:05.527Z,152.70
2022-10-14T01:21:05.491Z,173.80
2022-10-14T01:22:05.484Z,167.20
2022-10-14T01:23:05.471Z,213.90
2022-10-14T01:24:05.464Z,178.10
2022-10-14T01:25:05.448Z,151.50
2022-10-14T01:26:05.435Z,180.10
2022-10-14T01:27:05.425Z,139.00
2022-10-14T01:28:05.416Z,157.00
2022-10-14T01:29:05.408Z,129.40
2022-10-14T01:30:05.398Z,190.50
2022-10-14T01:31:05.379Z,156.50
2022-10-14T01:32:05.372Z,155.90
2022-10-14T01:33:05.358Z,162.60
2022-10-14T01:34:05.348Z,147.10
2022-10-14T01:35:05.336Z,161.30
2022-10-14T01:36:05.356Z,150.10
2022-10-14T01:37:05.314Z,205.20
2022-10-14T01:38:05.304Z,162.50
2022-10-14T01:39:05.292Z,225.50
2022-10-14T01:40:05.282Z,178.20
2022-10-14T01:41:05.270Z,195.80
2022-10-14T01:42:05.259Z,149.90
2022-10-14T01:43:05.248Z,182.50
2022-10-14T01:44:05.238Z,183.00
2022-10-14T01:45:05.225Z,173.00
2022-10-14T01:46:05.217Z,181.90
2022-10-14T01:47:05.204Z,161.20
2022-10-14T01:48:05.195Z,165.80
2022-10-14T01:49:05.182Z,205.50
2022-10-14T01:50:05.174Z,168.00
2022-10-14T01:51:05.160Z,168.70
2022-10-14T01:52:05.174Z,147.70
2022-10-14T01:53:05.137Z,146.70
2022-10-14T01:54:05.128Z,198.50
2022-10-14T01:55:05.117Z,164.60
2022-10-14T01:56:05.106Z,177.20
2022-10-14T01:57:05.094Z,171.40
2022-10-14T01:58:05.085Z,190.30
2022-10-14T01:59:05.072Z,167.90
2022-10-14T02:00:05.168Z,161.30
2022-10-14T02:01:05.053Z,194.90
2022-10-14T02:02:05.096Z,176.70
2022-10-14T02:03:05.035Z,198.30
2022-10-14T02:04:05.016Z,181.50
2022-10-14T02:05:05.006Z,222.20
2022-10-14T02:06:04.994Z,184.40
2022-10-14T02:07:04.985Z,181.10
2022-10-14T02:08:04.994Z,171.30
2022-10-14T02:09:04.963Z,177.70
2022-10-14T02:10:04.957Z,167.30
2022-10-14T02:11:04.941Z,179.00
2022-10-14T02:12:04.928Z,180.00
2022-10-14T02:13:04.919Z,200.50
2022-10-14T02:14:04.908Z,179.00
2022-10-14T02:15:04.897Z,177.20
2022-10-14T02:16:04.887Z,189.70
2022-10-14T02:17:04.874Z,197.90
2022-10-14T02:18:04.863Z,180.20
2022-10-14T02:19:04.852Z,189.70
2022-10-14T02:20:04.850Z,194.70
2022-10-14T02:21:04.831Z,170.90
2022-10-14T02:22:04.822Z,191.20
2022-10-14T02:23:04.811Z,186.60
2022-10-14T02:24:04.819Z,179.40
2022-10-14T02:25:04.786Z,190.80
2022-10-14T02:26:04.778Z,198.10
2022-10-14T02:27:04.764Z,197.60
2022-10-14T02:28:04.752Z,195.10
2022-10-14T02:29:04.743Z,218.10
2022-10-14T02:30:04.730Z,232.40
2022-10-14T02:31:04.725Z,219.60
2022-10-14T02:32:04.707Z,209.20
2022-10-14T02:33:04.698Z,194.50
2022-10-14T02:34:04.687Z,197.70
2022-10-14T02:35:04.730Z,214.60
2022-10-14T02:36:04.662Z,216.40
2022-10-14T02:37:04.654Z,187.60
2022-10-14T02:38:04.639Z,162.70
2022-10-14T02:39:04.631Z,156.60
2022-10-14T02:40:04.646Z,172.60
2022-10-14T02:41:04.608Z,174.50
2022-10-14T02:42:04.598Z,168.10
2022-10-14T02:43:04.591Z,161.90
2022-10-14T02:44:04.575Z,192.10
2022-10-14T02:45:04.564Z,172.00
2022-10-14T02:46:04.551Z,175.90
2022-10-14T02:47:04.544Z,148.60
2022-10-14T02:48:04.530Z,184.80
2022-10-14T02:49:04.522Z,152.30
2022-10-14T02:50:04.509Z,153.90
2022-10-14T02:51:04.502Z,163.50
2022-10-14T02:52:04.488Z,158.60
2022-10-14T02:53:04.481Z,178.20
2022-10-14T02:54:04.464Z,165.00
2022-10-14T02:55:04.455Z,197.70
2022-10-14T02:56:04.464Z,189.80
2022-10-14T02:57:04.435Z,188.30
2022-10-14T02:58:04.424Z,175.30
2022-10-14T02:59:04.686Z,197.50
2022-10-14T03:00:04.430Z,170.90
2022-10-14T03:01:04.414Z,163.00
2022-10-14T03:02:04.420Z,176.30
2022-10-14T03:03:04.369Z,158.30
2022-10-14T03:04:04.356Z,166.90
2022-10-14T03:05:04.344Z,220.10
2022-10-14T03:06:04.337Z,159.60
2022-10-14T03:07:04.322Z,177.50
2022-10-14T03:08:04.310Z,179.90
2022-10-14T03:09:04.299Z,199.30
2022-10-14T03:10:04.288Z,176.20
2022-10-14T03:11:04.278Z,173.10
2022-10-14T03:12:04.288Z,160.60
2022-10-14T03:13:04.255Z,154.30
2022-10-14T03:14:04.245Z,167.30
2022-10-14T03:15:04.234Z,148.70
2022-10-14T03:16:04.227Z,175.60
2022-10-14T03:17:04.215Z,159.70
2022-10-14T03:18:04.200Z,182.10
2022-10-14T03:19:04.190Z,173.00
2022-10-14T03:20:04.177Z,198.70
2022-10-14T03:21:04.170Z,186.20
2022-10-14T03:22:04.155Z,224.20
2022-10-14T03:23:04.145Z,225.10
2022-10-14T03:24:04.134Z,197.60
2022-10-14T03:25:04.126Z,176.40
2022-10-14T03:26:04.110Z,210.10
2022-10-14T03:27:04.100Z,198.00
2022-10-14T03:28:04.112Z,177.10
2022-10-14T03:29:04.080Z,190.00
2022-10-14T03:30:04.067Z,195.60
2022-10-14T03:31:04.055Z,205.30
2022-10-14T03:32:04.045Z,178.40
2022-10-14T03:33:04.036Z,208.40
2022-10-14T03:34:04.122Z,220.00
2022-10-14T03:35:04.015Z,168.70
2022-10-14T03:36:04.003Z,202.10
2022-10-14T03:37:03.991Z,170.80
2022-10-14T03:38:03.986Z,186.90
2022-10-14T03:39:03.968Z,191.60
2022-10-14T03:40:03.958Z,216.50
2022-10-14T03:41:03.948Z,206.00
2022-10-14T03:42:03.934Z,183.70
2022-10-14T03:43:03.924Z,174.20
2022-10-14T03:44:03.935Z,200.10
2022-10-14T03:45:03.901Z,213.30
2022-10-14T03:46:03.889Z,191.20
2022-10-14T03:47:03.883Z,221.30
2022-10-14T03:48:03.866Z,204.80
2022-10-14T03:49:03.860Z,190.60
2022-10-14T03:50:03.845Z,191.00
2022-10-14T03:51:03.836Z,224.90
2022-10-14T03:52:03.825Z,181.20
2022-10-14T03:53:03.814Z,179.40
2022-10-14T03:54:03.803Z,204.20
2022-10-14T03:55:03.791Z,195.70
2022-10-14T03:56:03.778Z,226.30
2022-10-14T03:57:03.768Z,255.40
2022-10-14T03:58:03.756Z,206.40
2022-10-14T03:59:03.749Z,216.50
2022-10-14T04:00:03.758Z,214.80
2022-10-14T04:01:03.725Z,196.20
2022-10-14T04:02:03.788Z,190.40
2022-10-14T04:03:03.702Z,190.10
2022-10-14T04:04:03.689Z,206.20
2022-10-14T04:05:03.682Z,195.40
2022-10-14T04:06:03.675Z,176.10
2022-10-14T04:07:03.667Z,242.70
2022-10-14T04:08:03.647Z,183.20
2022-10-14T04:09:03.646Z,183.00
2022-10-14T04:10:03.627Z,183.40
2022-10-14T04:11:03.613Z,243.80
2022-10-14T04:12:03.602Z,182.10
2022-10-14T04:13:03.592Z,205.80
2022-10-14T04:14:03.582Z,158.00
2022-10-14T04:15:03.572Z,199.80
2022-10-14T04:16:03.579Z,201.50
2022-10-14T04:17:03.548Z,213.90
2022-10-14T04:18:03.535Z,173.90
2022-10-14T04:19:03.526Z,195.30
2022-10-14T04:20:03.547Z,200.80
2022-10-14T04:21:03.506Z,170.20
2022-10-14T04:22:03.495Z,195.50
2022-10-14T04:23:03.481Z,199.80
2022-10-14T04:24:08.028Z,200.50
2022-10-14T04:25:03.462Z,182.60
2022-10-14T04:26:03.450Z,233.80
2022-10-14T04:27:03.440Z,216.90
2022-10-14T04:28:03.433Z,195.40
2022-10-14T04:29:03.520Z,174.60
2022-10-14T04:30:03.404Z,189.80
2022-10-14T04:31:03.396Z,237.10
2022-10-14T04:32:03.408Z,209.60
2022-10-14T04:33:03.371Z,247.50
2022-10-14T04:34:03.361Z,177.50
2022-10-14T04:35:03.362Z,203.60
2022-10-14T04:36:03.338Z,238.90
2022-10-14T04:37:03.332Z,213.10
2022-10-14T04:38:03.316Z,191.90
2022-10-14T04:39:03.306Z,242.70
2022-10-14T04:40:03.293Z,182.90
2022-10-14T04:41:03.285Z,207.30
2022-10-14T04:42:03.274Z,200.60
2022-10-14T04:43:03.263Z,213.70
2022-10-14T04:44:03.249Z,210.80
2022-10-14T04:45:03.240Z,207.10
2022-10-14T04:46:03.229Z,202.10
2022-10-14T04:47:03.221Z,189.40
2022-10-14T04:48:03.228Z,199.20
2022-10-14T04:49:03.197Z,237.80
2022-10-14T04:50:03.186Z,226.70
2022-10-14T04:51:03.186Z,190.30
2022-10-14T04:52:03.163Z,208.50
2022-10-14T04:53:03.151Z,219.00
2022-10-14T04:54:03.141Z,184.00
2022-10-14T04:55:03.129Z,220.00
2022-10-14T04:56:03.118Z,182.30
2022-10-14T04:57:03.114Z,192.30
2022-10-14T04:58:03.094Z,197.40
2022-10-14T04:59:03.093Z,216.90
2022-10-14T05:00:03.073Z,196.00
2022-10-14T05:01:03.065Z,236.00
2022-10-14T05:02:03.105Z,248.70
2022-10-14T05:03:03.042Z,192.50
2022-10-14T05:04:03.054Z,191.00
2022-10-14T05:05:03.020Z,265.40
2022-10-14T05:06:03.006Z,216.40
2022-10-14T05:07:03.000Z,167.10
2022-10-14T05:08:02.984Z,195.90
2022-10-14T05:09:02.976Z,168.10
2022-10-14T05:10:02.962Z,221.70
2022-10-14T05:11:02.953Z,180.90
2022-10-14T05:12:02.943Z,213.60
2022-10-14T05:13:02.933Z,216.40
2022-10-14T05:14:02.922Z,187.90
2022-10-14T05:15:02.910Z,189.80
2022-10-14T05:16:02.901Z,190.80
2022-10-14T05:17:02.894Z,206.40
2022-10-14T05:18:02.875Z,223.40
2022-10-14T05:19:02.866Z,226.20
2022-10-14T05:20:02.881Z,244.80
2022-10-14T05:21:02.846Z,219.60
2022-10-14T05:22:02.831Z,222.40
2022-10-14T05:23:02.851Z,230.80
2022-10-14T05:24:02.823Z,203.30
2022-10-14T05:25:02.798Z,235.50
2022-10-14T05:26:02.790Z,201.30
2022-10-14T05:27:02.780Z,307.20
2022-10-14T05:28:02.768Z,250.20
2022-10-14T05:29:02.803Z,192.10
2022-10-14T05:30:02.745Z,274.30
2022-10-14T05:31:02.733Z,294.60
2022-10-14T05:32:02.722Z,188.50
2022-10-14T05:33:02.712Z,201.20
2022-10-14T05:34:02.698Z,238.80
2022-10-14T05:35:02.688Z,229.20
2022-10-14T05:36:02.707Z,192.60
2022-10-14T05:37:02.669Z,208.70
2022-10-14T05:38:04.390Z,226.80
2022-10-14T05:39:02.647Z,208.30
2022-10-14T05:40:02.633Z,240.40
2022-10-14T05:41:02.623Z,189.00
2022-10-14T05:42:02.611Z,231.00
2022-10-14T05:43:02.601Z,222.70
2022-10-14T05:44:02.587Z,242.00
2022-10-14T05:45:02.603Z,269.60
2022-10-14T05:46:02.571Z,209.70
2022-10-14T05:47:02.560Z,238.30
2022-10-14T05:48:02.545Z,226.30
2022-10-14T05:49:02.534Z,255.10
2022-10-14T05:50:02.523Z,194.10
2022-10-14T05:51:02.514Z,216.30
2022-10-14T05:52:02.521Z,228.10
2022-10-14T05:53:02.488Z,205.30
2022-10-14T05:54:02.477Z,262.40
2022-10-14T05:55:02.470Z,238.40
2022-10-14T05:56:02.455Z,214.20
2022-10-14T05:57:02.448Z,239.20
2022-10-14T05:58:02.433Z,205.40
2022-10-14T05:59:02.423Z,240.40
2022-10-14T06:00:02.414Z,218.60
2022-10-14T06:01:02.404Z,212.60
2022-10-14T06:02:02.390Z,241.10
2022-10-14T06:03:02.463Z,264.90
2022-10-14T06:04:02.369Z,244.70
2022-10-14T06:05:02.361Z,248.10
2022-10-14T06:06:02.350Z,220.10
2022-10-14T06:07:02.337Z,235.90
2022-10-14T06:08:02.350Z,213.40
2022-10-14T06:09:02.317Z,221.80
2022-10-14T06:10:02.303Z,216.20
2022-10-14T06:11:02.297Z,215.40
2022-10-14T06:12:02.279Z,222.20
2022-10-14T06:13:02.273Z,246.70
2022-10-14T06:14:02.256Z,227.80
2022-10-14T06:15:02.246Z,228.40
2022-10-14T06:16:02.238Z,246.40
2022-10-14T06:17:02.223Z,253.00
2022-10-14T06:18:02.217Z,237.10
2022-10-14T06:19:02.202Z,251.80
2022-10-14T06:20:02.193Z,236.20
2022-10-14T06:21:02.179Z,244.10
2022-10-14T06:22:02.173Z,244.60
2022-10-14T06:23:02.158Z,249.40
2022-10-14T06:24:02.173Z,236.20
2022-10-14T06:25:04.471Z,260.00
2022-10-14T06:26:02.127Z,254.60
2022-10-14T06:27:02.115Z,277.00
2022-10-14T06:28:02.107Z,292.20
2022-10-14T06:29:02.147Z,300.20
2022-10-14T06:30:02.088Z,285.10
2022-10-14T06:31:02.069Z,270.30
2022-10-14T06:32:02.059Z,264.10
2022-10-14T06:33:02.050Z,311.40
2022-10-14T06:34:02.037Z,242.90
2022-10-14T06:35:02.029Z,261.40
2022-10-14T06:36:02.016Z,260.00
2022-10-14T06:37:02.583Z,265.70
2022-10-14T06:38:01.995Z,231.00
2022-10-14T06:39:01.982Z,206.90
2022-10-14T06:40:01.998Z,208.50
2022-10-14T06:41:01.974Z,204.60
2022-10-14T06:42:01.955Z,224.50
2022-10-14T06:43:01.936Z,192.20
2022-10-14T06:44:01.933Z,221.00
2022-10-14T06:45:01.916Z,197.20
2022-10-14T06:46:01.907Z,258.50
2022-10-14T06:47:01.894Z,219.50
2022-10-14T06:48:01.884Z,211.40
2022-10-14T06:49:01.871Z,270.50
2022-10-14T06:50:01.874Z,217.00
2022-10-14T06:51:01.851Z,189.20
2022-10-14T06:52:01.838Z,192.40
2022-10-14T06:53:01.827Z,189.10
2022-10-14T06:54:01.818Z,234.20
2022-10-14T06:55:01.803Z,235.10
2022-10-14T06:56:01.817Z,228.00
2022-10-14T06:57:01.781Z,219.40
2022-10-14T06:58:01.775Z,266.90
2022-10-14T06:59:01.760Z,248.60
2022-10-14T07:00:01.764Z,270.50
2022-10-14T07:01:01.817Z,255.60
2022-10-14T07:02:01.859Z,251.50
2022-10-14T07:03:01.719Z,264.60
2022-10-14T07:04:01.829Z,275.90
2022-10-14T07:05:01.700Z,250.00
2022-10-14T07:06:01.696Z,260.00
2022-10-14T07:07:01.675Z,235.60
2022-10-14T07:09:01.651Z,210.50
2022-10-14T07:10:01.642Z,228.10
2022-10-14T07:11:01.637Z,204.50
2022-10-14T07:12:01.640Z,200.20
2022-10-14T07:13:01.606Z,194.30
2022-10-14T07:14:01.629Z,203.90
2022-10-14T07:15:01.587Z,194.90
2022-10-14T07:16:01.574Z,232.30
2022-10-14T07:17:01.566Z,183.40
2022-10-14T07:18:01.562Z,198.20
2022-10-14T07:19:01.541Z,194.00
2022-10-14T07:20:01.534Z,160.80
2022-10-14T07:21:01.517Z,159.20
2022-10-14T07:22:01.508Z,201.80
2022-10-14T07:23:01.495Z,164.90
2022-10-14T07:24:01.485Z,176.30
2022-10-14T07:25:01.500Z,199.80
2022-10-14T07:26:01.478Z,169.70
2022-10-14T07:28:01.461Z,186.40
2022-10-14T07:29:01.492Z,154.80
2022-10-14T07:30:01.421Z,158.80
2022-10-14T07:31:01.407Z,137.40
2022-10-14T07:32:01.400Z,138.60
2022-10-14T07:33:01.386Z,122.30
2022-10-14T07:34:01.399Z,123.50
2022-10-14T07:35:01.365Z,135.10
2022-10-14T07:36:01.358Z,131.90
2022-10-14T07:37:01.345Z,120.80
2022-10-14T07:38:01.331Z,152.40
2022-10-14T07:39:01.319Z,115.40
2022-10-14T07:40:01.310Z,110.00
2022-10-14T07:41:01.297Z,110.20
2022-10-14T07:42:01.289Z,110.90
2022-10-14T07:43:01.306Z,109.90
2022-10-14T07:44:01.301Z,99.80
2022-10-14T07:45:01.253Z,110.20
2022-10-14T07:46:01.243Z,98.40
2022-10-14T07:47:01.230Z,98.50
2022-10-14T07:48:01.220Z,99.70
2022-10-14T07:49:01.207Z,92.00
2022-10-14T07:50:01.199Z,97.30
2022-10-14T07:51:01.184Z,107.90
2022-10-14T07:52:01.173Z,97.50
2022-10-14T07:53:01.725Z,106.50
2022-10-14T07:54:01.161Z,87.90
2022-10-14T07:55:01.170Z,95.90
2022-10-14T07:56:01.131Z,85.90
2022-10-14T07:57:01.116Z,79.10
2022-10-14T07:58:01.106Z,81.60
2022-10-14T07:59:01.090Z,81.00
2022-10-14T08:00:01.111Z,72.60
2022-10-14T08:01:01.070Z,67.90
2022-10-14T08:02:01.120Z,69.00
2022-10-14T08:03:01.045Z,70.00
2022-10-14T08:04:01.038Z,62.40
2022-10-14T08:06:01.028Z,69.50
2022-10-14T08:07:01.002Z,65.60
2022-10-14T08:08:00.990Z,65.20
2022-10-14T08:09:00.983Z,64.10
2022-10-14T08:10:00.997Z,62.00
2022-10-14T08:11:00.965Z,60.50
2022-10-14T08:12:00.982Z,56.50
2022-10-14T08:13:00.939Z,57.00
2022-10-14T08:14:00.932Z,54.90
2022-10-14T08:15:00.915Z,55.40
2022-10-14T08:16:00.979Z,54.80
2022-10-14T08:17:00.958Z,56.00
2022-10-14T08:18:00.916Z,55.40
2022-10-14T08:19:00.958Z,55.30
2022-10-14T08:20:01.025Z,56.40
2022-10-14T08:21:00.962Z,58.90
2022-10-14T08:22:00.956Z,58.00
2022-10-14T08:23:00.962Z,53.50
2022-10-14T08:24:00.935Z,50.70
2022-10-14T08:25:00.948Z,47.20
2022-10-14T08:26:00.794Z,48.50
2022-10-14T08:27:00.804Z,47.30
2022-10-14T08:28:00.800Z,45.70
2022-10-14T08:29:00.760Z,44.50
2022-10-14T08:30:00.755Z,46.70
2022-10-14T08:31:00.741Z,42.40
2022-10-14T08:32:00.751Z,41.40
2022-10-14T08:33:00.820Z,41.20
2022-10-14T08:34:00.707Z,40.70
2022-10-14T08:35:00.696Z,41.30
2022-10-14T08:36:00.688Z,42.40
2022-10-14T08:37:00.675Z,40.70
2022-10-14T08:38:00.685Z,43.90
2022-10-14T08:39:00.720Z,48.00
2022-10-14T08:40:00.645Z,47.90
2022-10-14T08:41:00.630Z,44.60
2022-10-14T08:42:00.620Z,44.50
2022-10-14T08:43:00.609Z,42.60
2022-10-14T08:44:00.598Z,49.60
2022-10-14T08:45:00.584Z,46.30
2022-10-14T08:46:00.575Z,44.50
2022-10-14T08:47:00.561Z,44.80
2022-10-14T08:48:00.578Z,41.30
2022-10-14T08:49:00.565Z,41.40
2022-10-14T08:50:00.559Z,41.90
2022-10-14T08:51:00.517Z,39.20
2022-10-14T08:52:00.504Z,39.50
2022-10-14T08:53:00.495Z,39.70
2022-10-14T08:54:00.484Z,45.00
2022-10-14T08:55:00.470Z,43.80
2022-10-14T08:56:00.483Z,47.80
2022-10-14T08:57:00.524Z,45.60
2022-10-14T08:58:00.496Z,44.30
2022-10-14T08:59:00.429Z,44.90
2022-10-14T09:00:00.424Z,42.10
2022-10-14T09:01:00.419Z,43.60
2022-10-14T09:02:00.410Z,40.90
2022-10-14T09:03:00.481Z,41.80
2022-10-14T09:04:00.472Z,40.90
2022-10-14T09:05:00.356Z,41.50
2022-10-14T09:06:00.347Z,41.20
2022-10-14T09:07:00.334Z,40.20
2022-10-14T09:08:00.323Z,38.90
2022-10-14T09:09:00.316Z,39.60
2022-10-14T09:10:00.309Z,39.80
2022-10-14T09:11:00.295Z,35.50
2022-10-14T09:12:00.284Z,42.80
2022-10-14T09:13:00.287Z,43.70
2022-10-14T09:14:00.294Z,39.70
2022-10-14T09:15:00.255Z,39.20
2022-10-14T09:16:00.235Z,42.50
2022-10-14T09:17:00.308Z,43.10
2022-10-14T09:18:00.325Z,39.20
2022-10-14T09:19:00.203Z,42.30
2022-10-14T09:20:00.214Z,39.60
2022-10-14T09:21:00.184Z,38.60
2022-10-14T09:22:00.170Z,37.60
2022-10-14T09:23:00.188Z,39.80
2022-10-14T09:24:00.151Z,39.80
2022-10-14T09:25:00.147Z,36.00
2022-10-14T09:26:00.138Z,35.80
2022-10-14T09:27:00.202Z,37.70
2022-10-14T09:28:00.120Z,35.70
2022-10-14T09:29:00.243Z,34.70
2022-10-14T09:30:00.090Z,37.60
2022-10-14T09:31:00.085Z,35.60
2022-10-14T09:32:00.086Z,34.50
2022-10-14T09:33:00.050Z,33.40
2022-10-14T09:34:00.042Z,34.80
2022-10-14T09:35:00.043Z,36.70
2022-10-14T09:36:00.249Z,29.70
2022-10-14T09:37:00.005Z,32.60
2022-10-14T09:37:59.994Z,32.40
2022-10-14T09:39:03.746Z,35.30
2022-10-14T09:40:00.109Z,35.50
2022-10-14T09:40:59.991Z,34.50
2022-10-14T09:41:59.958Z,31.10
2022-10-14T09:42:59.938Z,32.60
2022-10-14T09:43:59.929Z,33.20
2022-10-14T09:44:59.949Z,34.30
2022-10-14T09:45:59.906Z,30.80
2022-10-14T09:46:59.893Z,31.50
2022-10-14T09:47:59.884Z,32.30
2022-10-14T09:48:59.872Z,28.50
2022-10-14T09:49:59.867Z,30.10
2022-10-14T09:50:59.849Z,30.60
2022-10-14T09:51:59.865Z,28.20
2022-10-14T09:52:59.892Z,27.70
2022-10-14T09:54:00.189Z,27.50
2022-10-14T09:54:59.809Z,29.20
2022-10-14T09:55:59.800Z,28.00
2022-10-14T09:56:59.787Z,29.00
2022-10-14T09:57:59.775Z,27.40
2022-10-14T09:58:59.766Z,29.60
2022-10-14T09:59:59.754Z,26.10
2022-10-14T10:00:59.738Z,28.00
2022-10-14T10:01:59.730Z,25.90
2022-10-14T10:02:59.720Z,26.00
2022-10-14T10:03:59.795Z,27.60
2022-10-14T10:04:59.702Z,29.10
2022-10-14T10:05:59.701Z,26.90
2022-10-14T10:06:59.738Z,27.90
2022-10-14T10:07:59.691Z,25.60
2022-10-14T10:08:59.652Z,26.70
2022-10-14T10:09:59.644Z,25.90
2022-10-14T10:11:03.651Z,36.00
2022-10-14T10:12:00.651Z,28.60
2022-10-14T10:12:59.848Z,29.00
2022-10-14T10:13:59.609Z,25.20
2022-10-14T10:14:59.587Z,23.30
2022-10-14T10:15:59.578Z,24.50
2022-10-14T10:16:59.572Z,26.80
2022-10-14T10:17:59.583Z,24.70
2022-10-14T10:18:59.591Z,28.60
2022-10-14T10:19:59.593Z,25.60
2022-10-14T10:20:59.537Z,25.90
2022-10-14T10:21:59.505Z,26.80
2022-10-14T10:22:59.493Z,25.70
2022-10-14T10:23:59.508Z,24.70
2022-10-14T10:24:59.473Z,25.10
2022-10-14T10:25:59.813Z,26.00
2022-10-14T10:26:59.448Z,23.20
2022-10-14T10:27:59.471Z,23.50
2022-10-14T10:28:59.527Z,24.30
2022-10-14T10:29:59.426Z,24.20
2022-10-14T10:30:59.408Z,22.60
2022-10-14T10:31:59.397Z,23.40
2022-10-14T10:32:59.384Z,22.30
2022-10-14T10:33:59.373Z,23.90
2022-10-14T10:34:59.363Z,21.40
2022-10-14T10:35:59.353Z,20.20
2022-10-14T10:36:59.392Z,22.50
2022-10-14T10:37:59.532Z,22.70
2022-10-14T10:38:59.346Z,22.40
2022-10-14T10:39:59.332Z,21.70
2022-10-14T10:40:59.555Z,23.80
2022-10-14T10:41:59.385Z,24.40
2022-10-14T10:42:59.281Z,22.60
2022-10-14T10:43:59.271Z,22.30
2022-10-14T10:44:59.259Z,21.10
2022-10-14T10:45:59.244Z,23.90
2022-10-14T10:46:59.250Z,21.90
2022-10-14T10:47:59.222Z,24.10
2022-10-14T10:48:59.216Z,23.90
2022-10-14T10:49:59.227Z,23.00
2022-10-14T10:50:59.191Z,23.20
2022-10-14T10:51:59.180Z,22.60
2022-10-14T10:52:59.170Z,23.70
2022-10-14T10:53:59.157Z,22.40
2022-10-14T10:54:59.151Z,24.30
2022-10-14T10:55:59.159Z,21.60
2022-10-14T10:56:59.143Z,18.40
2022-10-14T10:57:59.111Z,19.70
2022-10-14T10:58:59.114Z,23.70
2022-10-14T10:59:59.089Z,17.90
2022-10-14T11:00:59.082Z,24.40
2022-10-14T11:01:59.069Z,22.60
2022-10-14T11:02:59.062Z,22.30
2022-10-14T11:03:59.098Z,21.40
2022-10-14T11:04:59.188Z,19.50
2022-10-14T11:05:59.237Z,19.40
2022-10-14T11:06:59.034Z,19.70
2022-10-14T11:07:59.009Z,18.80
2022-10-14T11:08:59.113Z,19.20
2022-10-14T11:09:59.096Z,19.50
2022-10-14T11:10:59.023Z,20.60
2022-10-14T11:11:58.987Z,18.50
2022-10-14T11:12:58.959Z,17.40
2022-10-14T11:13:59.044Z,26.20
2022-10-14T11:14:59.030Z,21.40
2022-10-14T11:15:58.918Z,21.40
2022-10-14T11:16:58.910Z,20.60
2022-10-14T11:17:58.901Z,19.60
2022-10-14T11:18:59.246Z,19.50
2022-10-14T11:19:59.076Z,20.20
2022-10-14T11:20:58.865Z,17.70
2022-10-14T11:21:58.849Z,20.80
2022-10-14T11:22:58.864Z,19.40
2022-10-14T11:23:59.096Z,21.10
2022-10-14T11:24:59.201Z,17.70
2022-10-14T11:25:58.807Z,18.80
2022-10-14T11:26:58.800Z,19.40
2022-10-14T11:27:58.813Z,20.40
2022-10-14T11:28:58.810Z,19.70
2022-10-14T11:29:58.764Z,19.10
2022-10-14T11:30:58.757Z,20.00
2022-10-14T11:31:58.744Z,18.10
2022-10-14T11:32:58.731Z,17.10
2022-10-14T11:33:58.719Z,17.80
2022-10-14T11:34:58.713Z,18.60
2022-10-14T11:35:58.701Z,18.90
2022-10-14T11:36:58.787Z,21.30
2022-10-14T11:37:58.913Z,19.50
2022-10-14T11:38:58.672Z,19.60
2022-10-14T11:39:58.657Z,19.50
2022-10-14T11:40:58.653Z,17.60
2022-10-14T11:41:58.633Z,18.40
2022-10-14T11:42:58.621Z,17.80
2022-10-14T11:43:58.637Z,22.00
2022-10-14T11:44:58.604Z,18.20
2022-10-14T11:45:58.589Z,21.70
2022-10-14T11:46:58.579Z,22.80
2022-10-14T11:47:58.570Z,21.80
2022-10-14T11:48:58.558Z,23.50
2022-10-14T11:49:58.624Z,20.60
2022-10-14T11:50:58.804Z,19.90
2022-10-14T11:51:58.518Z,17.90
2022-10-14T11:52:58.514Z,18.80
2022-10-14T11:53:58.502Z,16.80
2022-10-14T11:54:58.517Z,18.50
2022-10-14T11:55:58.482Z,20.10
2022-10-14T11:56:58.472Z,16.20
2022-10-14T11:57:59.078Z,19.60
2022-10-14T11:58:58.448Z,19.00
2022-10-14T11:59:58.538Z,17.00
2022-10-14T12:00:58.716Z,21.00
2022-10-14T12:01:58.411Z,16.60
2022-10-14T12:02:58.520Z,18.00
2022-10-14T12:03:58.389Z,18.00
2022-10-14T12:04:58.384Z,21.90
2022-10-14T12:05:58.374Z,19.00
2022-10-14T12:06:58.360Z,18.90
2022-10-14T12:07:58.353Z,18.80
2022-10-14T12:08:58.338Z,16.90
2022-10-14T12:09:59.949Z,18.90
2022-10-14T12:10:58.314Z,17.70
2022-10-14T12:11:58.311Z,22.30
2022-10-14T12:12:58.296Z,19.60
2022-10-14T12:13:58.283Z,22.20
2022-10-14T12:14:58.473Z,18.90
2022-10-14T12:15:58.488Z,20.90
2022-10-14T12:16:58.547Z,19.80
2022-10-14T12:17:58.237Z,19.60
2022-10-14T12:18:58.226Z,19.70
2022-10-14T12:19:58.218Z,19.90
2022-10-14T12:20:58.206Z,18.70
2022-10-14T12:21:58.196Z,17.80
2022-10-14T12:22:58.185Z,20.00
2022-10-14T12:23:58.172Z,19.90
2022-10-14T12:24:58.465Z,18.40
2022-10-14T12:25:58.152Z,19.40
2022-10-14T12:26:58.142Z,19.40
2022-10-14T12:27:58.220Z,19.20
2022-10-14T12:29:00.085Z,19.20
2022-10-14T12:29:58.104Z,18.90
2022-10-14T12:30:58.095Z,20.50
2022-10-14T12:31:58.107Z,20.80
2022-10-14T12:32:58.074Z,20.50
2022-10-14T12:33:58.074Z,20.00
2022-10-14T12:34:58.063Z,22.40
2022-10-14T12:35:58.166Z,20.50
2022-10-14T12:36:58.230Z,22.90
2022-10-14T12:38:58.288Z,21.00
2022-10-14T12:39:58.165Z,23.20
2022-10-14T12:40:58.379Z,21.40